createdAt,value
2022-11-20T00:00:16.775Z,53.34
2022-11-20T00:03:21.866Z,53.22
2022-11-20T00:06:26.096Z,53.33
2022-11-20T00:09:29.978Z,53.38
2022-11-20T00:12:33.840Z,55.03
2022-11-20T00:15:40.358Z,55.43
2022-11-20T00:18:45.043Z,54.84
2022-11-20T00:21:56.818Z,54.18
2022-11-20T00:25:01.805Z,54.27
2022-11-20T00:28:05.822Z,54.47
2022-11-20T00:31:09.724Z,54.75
2022-11-20T00:34:13.626Z,55.65
2022-11-20T00:37:17.876Z,55.21
2022-11-20T00:40:22.056Z,55.55
2022-11-20T00:43:25.872Z,54.16
2022-11-20T00:46:29.642Z,54.20
2022-11-20T00:49:33.795Z,54.62
2022-11-20T00:52:37.986Z,54.80
2022-11-20T00:55:43.399Z,54.98
2022-11-20T00:58:47.834Z,54.62
2022-11-20T01:01:53.051Z,54.16
2022-11-20T01:04:59.664Z,54.39
2022-11-20T01:08:03.454Z,54.14
2022-11-20T01:11:07.450Z,53.33
2022-11-20T01:14:11.485Z,54.01
2022-11-20T01:17:15.313Z,53.84
2022-11-20T01:20:19.102Z,54.13
2022-11-20T01:23:23.368Z,53.65
2022-11-20T01:26:27.123Z,52.46
2022-11-20T01:29:31.106Z,52.62
2022-11-20T01:32:34.867Z,51.88
2022-11-20T01:35:38.979Z,52.13
2022-11-20T01:38:43.115Z,51.96
2022-11-20T01:41:47.361Z,51.52
2022-11-20T01:44:51.502Z,51.10
2022-11-20T01:47:56.184Z,51.38
2022-11-20T01:51:00.150Z,51.32
2022-11-20T01:54:04.320Z,51.78
2022-11-20T01:57:08.416Z,51.48
2022-11-20T02:00:12.093Z,52.31
2022-11-20T02:03:16.377Z,51.74
2022-11-20T02:06:20.209Z,51.05
2022-11-20T02:09:24.513Z,52.56
2022-11-20T02:12:28.654Z,53.11
2022-11-20T02:15:32.736Z,53.51
2022-11-20T02:18:36.889Z,53.18
2022-11-20T02:21:41.055Z,53.49
2022-11-20T02:24:45.063Z,52.46
2022-11-20T02:27:48.922Z,52.89
2022-11-20T02:30:52.798Z,53.97
2022-11-20T02:33:56.611Z,53.80
2022-11-20T02:37:00.756Z,53.47
2022-11-20T02:40:04.889Z,51.22
2022-11-20T02:43:08.807Z,52.57
2022-11-20T02:46:13.119Z,51.23
2022-11-20T02:49:16.839Z,51.56
2022-11-20T02:52:20.713Z,52.91
2022-11-20T02:55:24.716Z,51.45
2022-11-20T02:58:28.774Z,49.99
2022-11-20T03:01:32.799Z,50.54
2022-11-20T03:04:37.152Z,51.00
2022-11-20T03:07:41.197Z,50.00
2022-11-20T03:10:44.988Z,51.28
2022-11-20T03:13:50.711Z,50.58
2022-11-20T03:16:54.636Z,49.60
2022-11-20T03:19:58.825Z,50.63
2022-11-20T03:23:03.005Z,51.31
2022-11-20T03:26:07.108Z,51.13
2022-11-20T03:29:10.919Z,50.93
2022-11-20T03:32:15.201Z,50.18
2022-11-20T03:35:19.362Z,51.23
2022-11-20T03:38:23.429Z,53.78
2022-11-20T03:41:27.010Z,53.07
2022-11-20T03:44:30.941Z,52.65
2022-11-20T03:47:34.985Z,53.06
2022-11-20T03:50:40.029Z,52.69
2022-11-20T03:53:43.808Z,52.88
2022-11-20T03:56:47.542Z,52.11
2022-11-20T03:59:51.491Z,52.51
2022-11-20T04:02:55.388Z,50.73
2022-11-20T04:05:59.919Z,50.24
2022-11-20T04:09:03.407Z,50.84
2022-11-20T04:12:07.172Z,52.25
2022-11-20T04:15:11.248Z,53.77
2022-11-20T04:18:15.454Z,54.10
2022-11-20T04:21:19.892Z,54.41
2022-11-20T04:24:24.064Z,55.97
2022-11-20T04:27:28.288Z,57.06
2022-11-20T04:30:32.602Z,59.61
2022-11-20T04:33:36.545Z,59.97
2022-11-20T04:36:40.594Z,59.84
2022-11-20T04:39:44.899Z,60.12
2022-11-20T04:42:49.114Z,57.61
2022-11-20T04:45:53.438Z,59.54
2022-11-20T04:48:57.722Z,57.55
2022-11-20T04:52:02.003Z,57.69
2022-11-20T04:55:06.208Z,57.45
2022-11-20T04:58:10.545Z,57.50
2022-11-20T05:01:15.097Z,57.21
2022-11-20T05:04:19.205Z,57.62
2022-11-20T05:07:23.355Z,59.00
2022-11-20T05:10:27.584Z,59.40
2022-11-20T05:13:31.625Z,61.27
2022-11-20T05:16:35.650Z,61.67
2022-11-20T05:19:39.491Z,60.53
2022-11-20T05:22:43.651Z,60.02
2022-11-20T05:25:47.748Z,59.53
2022-11-20T05:28:51.756Z,59.22
2022-11-20T05:31:55.879Z,59.25
2022-11-20T05:34:59.870Z,58.15
2022-11-20T05:38:03.901Z,57.67
2022-11-20T05:41:08.205Z,58.14
2022-11-20T05:44:12.156Z,58.64
2022-11-20T05:47:16.122Z,58.53
2022-11-20T05:50:19.954Z,59.14
2022-11-20T05:53:27.457Z,58.25
2022-11-20T05:56:31.610Z,58.17
2022-11-20T05:59:35.602Z,59.28
2022-11-20T06:02:39.403Z,59.31
2022-11-20T06:05:43.202Z,59.13
2022-11-20T06:08:47.191Z,59.99
2022-11-20T06:11:51.461Z,58.22
2022-11-20T06:14:55.643Z,58.94
2022-11-20T06:17:59.644Z,59.80
2022-11-20T06:21:03.458Z,59.87
2022-11-20T06:24:07.431Z,60.15
2022-11-20T06:27:11.508Z,60.39
2022-11-20T06:30:15.387Z,59.23
2022-11-20T06:33:19.248Z,59.99
2022-11-20T06:36:23.317Z,60.36
2022-11-20T06:39:27.517Z,61.06
2022-11-20T06:42:31.755Z,60.55
2022-11-20T06:45:35.871Z,60.88
2022-11-20T06:48:39.762Z,61.33
2022-11-20T06:51:43.780Z,61.46
2022-11-20T06:54:47.629Z,62.21
2022-11-20T06:57:55.752Z,62.05
2022-11-20T07:01:01.439Z,61.45
2022-11-20T07:04:05.528Z,62.75
2022-11-20T07:07:09.367Z,62.17
2022-11-20T07:10:13.535Z,60.94
2022-11-20T07:13:17.478Z,60.04
2022-11-20T07:16:21.706Z,59.51
2022-11-20T07:19:25.811Z,60.22
2022-11-20T07:22:29.611Z,60.13
2022-11-20T07:25:34.937Z,60.33
2022-11-20T07:28:39.475Z,60.49
2022-11-20T07:31:43.148Z,60.66
2022-11-20T07:34:46.905Z,60.35
2022-11-20T07:37:51.343Z,59.83
2022-11-20T07:40:55.263Z,58.47
2022-11-20T07:43:59.331Z,59.29
2022-11-20T07:47:05.672Z,58.25
2022-11-20T07:50:09.513Z,59.82
2022-11-20T07:53:13.623Z,58.82
2022-11-20T07:56:17.308Z,58.54
2022-11-20T07:59:21.999Z,57.90
2022-11-20T08:02:26.695Z,58.38
2022-11-20T08:05:30.470Z,57.94
2022-11-20T08:08:36.906Z,59.31
2022-11-20T08:11:47.995Z,59.64
2022-11-20T08:14:53.404Z,59.95
2022-11-20T08:18:28.928Z,58.81
2022-11-20T08:24:16.970Z,58.46
2022-11-20T08:30:56.094Z,57.23
2022-11-20T08:34:24.942Z,59.18
2022-11-20T08:37:28.913Z,59.13
2022-11-20T08:40:33.082Z,57.73
2022-11-20T08:43:37.132Z,58.84
2022-11-20T08:46:41.135Z,57.97
2022-11-20T08:53:19.909Z,58.95
2022-11-20T08:56:24.380Z,58.22
2022-11-20T09:00:03.732Z,57.15
2022-11-20T09:02:59.217Z,57.45
2022-11-20T09:06:03.360Z,56.91
2022-11-20T09:09:10.680Z,56.95
2022-11-20T09:15:45.333Z,56.16
2022-11-20T09:19:28.600Z,55.75
2022-11-20T09:27:50.360Z,53.27
2022-11-20T09:30:55.491Z,51.55
2022-11-20T09:33:59.783Z,51.56
2022-11-20T09:37:07.584Z,54.78
2022-11-20T09:40:18.745Z,51.83
2022-11-20T09:43:24.990Z,54.56
2022-11-20T09:46:29.485Z,51.77
2022-11-20T09:49:33.729Z,50.81
2022-11-20T09:56:18.244Z,51.34
2022-11-20T10:02:56.387Z,51.15
2022-11-20T10:06:00.861Z,48.38
2022-11-20T10:12:16.711Z,49.94
2022-11-20T10:15:24.032Z,51.22
2022-11-20T10:18:28.562Z,50.62
2022-11-20T10:21:33.142Z,50.77
2022-11-20T10:24:37.010Z,49.70
2022-11-20T10:27:42.368Z,50.29
2022-11-20T10:30:46.457Z,51.90
2022-11-20T10:34:11.097Z,52.08
2022-11-20T10:37:14.834Z,51.30
2022-11-20T10:40:19.352Z,51.76
2022-11-20T10:46:52.168Z,51.26
2022-11-20T10:49:57.588Z,50.90
2022-11-20T10:53:02.023Z,50.14
2022-11-20T10:56:06.511Z,50.86
2022-11-20T10:59:20.732Z,50.95
2022-11-20T11:02:25.880Z,54.05
2022-11-20T11:05:40.210Z,50.83
2022-11-20T11:36:57.978Z,49.67
2022-11-20T11:40:23.516Z,48.71
2022-11-20T11:43:36.725Z,48.80
2022-11-20T11:46:42.426Z,52.29
2022-11-20T11:49:49.398Z,50.82
2022-11-20T12:06:51.602Z,46.27
2022-11-20T12:10:11.488Z,46.64
2022-11-20T12:13:22.633Z,48.81
2022-11-20T12:16:27.713Z,49.66
2022-11-20T12:19:34.613Z,48.04
2022-11-20T12:26:08.990Z,47.57
2022-11-20T12:29:15.132Z,47.00
2022-11-20T12:35:49.592Z,46.77
2022-11-20T12:42:29.177Z,47.98
2022-11-20T12:45:34.560Z,46.45
2022-11-20T12:48:45.931Z,47.18
2022-11-20T12:51:50.806Z,46.82
2022-11-20T12:54:55.061Z,47.00
2022-11-20T12:57:59.107Z,46.46
2022-11-20T13:01:04.239Z,45.18
2022-11-20T13:04:10.536Z,45.40
2022-11-20T13:07:15.902Z,47.00
2022-11-20T13:10:25.975Z,50.26
2022-11-20T13:13:30.221Z,48.89
2022-11-20T13:16:34.870Z,45.67
2022-11-20T13:19:39.440Z,42.76
2022-11-20T13:26:21.604Z,44.82
2022-11-20T13:33:06.722Z,44.27
2022-11-20T14:00:32.730Z,43.22
2022-11-20T14:04:07.110Z,43.25
2022-11-20T14:58:33.540Z,47.67
2022-11-20T15:33:51.359Z,49.00
2022-11-20T15:47:35.206Z,49.43
2022-11-20T15:55:16.254Z,49.32
2022-11-20T16:19:44.638Z,52.53
2022-11-20T16:22:49.768Z,51.69
2022-11-20T16:26:04.435Z,54.50
2022-11-20T16:33:27.474Z,51.47
2022-11-20T16:36:12.529Z,53.16
2022-11-20T16:39:24.431Z,55.02
2022-11-20T16:49:13.701Z,53.74
2022-11-20T16:52:18.336Z,53.82
2022-11-20T16:55:48.658Z,47.85
2022-11-20T16:58:56.760Z,50.23
2022-11-20T17:02:31.541Z,48.96
2022-11-20T17:05:37.947Z,52.04
2022-11-20T17:08:46.949Z,52.65
2022-11-20T17:11:54.497Z,52.50
2022-11-20T17:14:58.581Z,56.33
2022-11-20T17:18:03.699Z,58.07
2022-11-20T17:21:07.912Z,56.20
2022-11-20T17:24:13.275Z,56.26
2022-11-20T17:27:17.635Z,54.99
2022-11-20T17:30:24.226Z,54.78
2022-11-20T17:33:28.094Z,54.20
2022-11-20T17:36:31.905Z,53.74
2022-11-20T17:39:37.415Z,54.27
2022-11-20T17:42:41.423Z,52.82
2022-11-20T17:45:45.398Z,53.83
2022-11-20T17:48:49.329Z,53.23
2022-11-20T17:51:56.633Z,56.04
2022-11-20T17:55:00.621Z,54.63
2022-11-20T17:58:04.392Z,56.45
2022-11-20T18:01:10.439Z,53.10
2022-11-20T18:04:14.915Z,52.07
2022-11-20T18:07:18.785Z,58.58
2022-11-20T18:10:22.579Z,57.00
2022-11-20T18:13:27.699Z,55.51
2022-11-20T18:16:31.713Z,60.97
2022-11-20T18:19:37.618Z,60.14
2022-11-20T18:22:44.866Z,59.25
2022-11-20T18:25:48.955Z,57.82
2022-11-20T18:28:52.737Z,57.96
2022-11-20T18:31:56.712Z,58.15
2022-11-20T18:35:03.436Z,58.21
2022-11-20T18:38:07.514Z,60.26
2022-11-20T18:41:11.584Z,59.68
2022-11-20T18:44:15.484Z,59.40
2022-11-20T18:47:20.833Z,55.36
2022-11-20T18:50:24.785Z,55.05
2022-11-20T18:53:28.931Z,54.52
2022-11-20T18:56:32.624Z,57.71
2022-11-20T18:59:36.554Z,58.13
2022-11-20T19:02:43.175Z,57.91
2022-11-20T19:05:48.542Z,56.83
2022-11-20T19:08:52.780Z,56.96
2022-11-20T19:11:56.768Z,56.30
2022-11-20T19:15:00.975Z,56.28
2022-11-20T19:18:04.715Z,57.05
2022-11-20T19:21:08.699Z,57.67
2022-11-20T19:24:12.818Z,58.45
2022-11-20T19:27:16.946Z,60.51
2022-11-20T19:30:22.717Z,61.29
2022-11-20T19:33:26.999Z,59.55
2022-11-20T19:36:31.260Z,60.93
2022-11-20T19:39:35.444Z,63.38
2022-11-20T19:42:39.418Z,65.24
2022-11-20T19:48:34.294Z,62.22
2022-11-20T19:58:06.829Z,65.94
2022-11-20T20:01:11.383Z,64.86
2022-11-20T20:04:15.286Z,66.40
2022-11-20T20:07:25.312Z,64.88
2022-11-20T20:10:33.025Z,64.64
2022-11-20T20:16:54.907Z,64.63
2022-11-20T20:19:58.867Z,65.46
2022-11-20T20:23:03.013Z,65.75
2022-11-20T20:29:36.036Z,67.38
2022-11-20T20:32:40.737Z,67.20
2022-11-20T20:35:47.026Z,69.97
2022-11-20T20:38:50.999Z,68.08
2022-11-20T20:41:54.886Z,69.36
2022-11-20T20:45:01.090Z,70.36
2022-11-20T20:48:05.541Z,68.05
2022-11-20T20:51:09.915Z,70.64
2022-11-20T20:54:14.524Z,69.44
2022-11-20T20:57:23.724Z,68.53
2022-11-20T21:03:49.466Z,69.69
2022-11-20T21:06:54.185Z,68.00
2022-11-20T21:13:15.166Z,69.16
2022-11-20T21:24:55.342Z,69.58
2022-11-20T21:48:58.540Z,66.86
2022-11-20T22:01:55.129Z,65.95
2022-11-20T22:05:05.615Z,67.52
2022-11-20T22:08:09.498Z,65.74
2022-11-20T22:11:14.799Z,65.93
2022-11-20T22:39:27.584Z,66.42
2022-11-20T22:42:35.173Z,65.35
2022-11-20T22:45:40.413Z,65.70
2022-11-20T22:55:48.727Z,67.02
2022-11-20T23:05:54.195Z,65.76
2022-11-20T23:08:55.973Z,66.22
2022-11-20T23:12:00.551Z,63.66
2022-11-20T23:18:23.912Z,67.01
